»·PEaware :: N1127M KSLE-KPDX

N1127M :: KSLE-KPDX

FLIGHT INFORMATION

Flight Status: Arrived
Operator: Privately registered:
United States
More flights under this callsign
Pilot: Marcelo S. (23897)
Aircraft: Diamond DA-62
(DA62)
More flights by this aircraft type
Origin: KSLE McNary
United States
Destination: KPDX Portland Intl
United States
More flights between these airports :: More routes between these airports
Route: SLE4 UBG
File this flight plan on PilotEdge
Remarks:
Altitude:
(Current/Filed)
5,000ft
Speed:
(Current/Filed)
180kts
Departed: 15-Sep-19 08:30 AM
Arrived: 15-Sep-19 09:07 AM
Distance/Time
Traveled:
44nm/0:36
Distance/Time
To Go:
Arrived

Flight Plot

Page will automatically refresh every two minutes.

Flight plan parsing failed; only flown route is shown


Map Options




Map Legend


Flown Route
Filed Route
Departure Airport
Arrival Airport
Navaid (VOR, NDB)
Fix

Horizontal Profiles

Position Reports

Time Latitude Longitude Heading Altitude Ground
Speed
15-Sep-19 08:17 44.906486 -123.006393 1 207ft 0kts
15-Sep-19 08:18 44.906486 -123.006393 1 207ft 0kts
15-Sep-19 08:19 44.906486 -123.006393 1 207ft 0kts
15-Sep-19 08:20 44.906784 -123.005666 142 207ft 17kts
15-Sep-19 08:21 44.904358 -123.005557 179 208ft 12kts
15-Sep-19 08:22 44.902675 -123.004752 144 211ft 0kts
15-Sep-19 08:23 44.902675 -123.004752 144 211ft 0kts
15-Sep-19 08:24 44.902675 -123.004752 144 211ft 0kts
15-Sep-19 08:25 44.902674 -123.004752 144 211ft 0kts
15-Sep-19 08:26 44.902674 -123.004752 144 211ft 0kts
15-Sep-19 08:27 44.902674 -123.004752 144 211ft 0kts
15-Sep-19 08:28 44.902174 -123.003668 49 210ft 23kts
15-Sep-19 08:29 44.903651 -123.003544 3 210ft 48kts
15-Sep-19 08:30 44.921017 -123.003228 356 441ft 125kts
15-Sep-19 08:31 44.944932 -123.002971 359 899ft 138kts
15-Sep-19 08:32 44.968425 -123.002264 0 1393ft 143kts
15-Sep-19 08:33 44.986340 -123.001595 0 1753ft 144kts
15-Sep-19 08:34 45.009958 -123.000418 0 2239ft 145kts
15-Sep-19 08:35 45.035107 -122.998895 359 2750ft 146kts
15-Sep-19 08:36 45.060051 -122.997295 358 3251ft 148kts
15-Sep-19 08:37 45.085732 -122.995631 357 3761ft 149kts
15-Sep-19 08:38 45.109418 -122.992530 23 4208ft 154kts
15-Sep-19 08:39 45.128275 -122.963669 54 4728ft 153kts
15-Sep-19 08:40 45.148023 -122.928257 54 5001ft 173kts
15-Sep-19 08:41 45.165905 -122.894831 55 5000ft 185kts
15-Sep-19 08:42 45.184469 -122.860371 55 5063ft 185kts
15-Sep-19 08:43 45.203540 -122.824375 55 5010ft 192kts
15-Sep-19 08:44 45.222411 -122.788755 55 4998ft 188kts
15-Sep-19 08:45 45.240798 -122.754129 55 4997ft 186kts
15-Sep-19 08:46 45.261161 -122.716072 57 5012ft 184kts
15-Sep-19 08:47 45.284078 -122.673077 54 5001ft 185kts
15-Sep-19 08:48 45.305449 -122.631870 54 4911ft 189kts
15-Sep-19 08:49 45.324144 -122.591670 59 4952ft 185kts
15-Sep-19 08:50 45.341519 -122.555847 57 4971ft 182kts
15-Sep-19 08:51 45.358740 -122.517756 53 4783ft 186kts
15-Sep-19 08:52 45.377168 -122.479124 56 4273ft 183kts
15-Sep-19 08:53 45.392949 -122.441598 54 3607ft 178kts
15-Sep-19 08:54 45.410453 -122.411522 23 3258ft 152kts
15-Sep-19 08:55 45.435944 -122.394801 21 2603ft 150kts
15-Sep-19 08:56 45.461537 -122.376906 24 2444ft 128kts
15-Sep-19 08:57 45.484675 -122.359770 6 2472ft 123kts
15-Sep-19 08:58 45.504648 -122.379218 315 2413ft 127kts
15-Sep-19 08:59 45.520383 -122.408239 304 2449ft 123kts
15-Sep-19 09:00 45.534474 -122.442555 300 2041ft 131kts
15-Sep-19 09:01 45.547248 -122.474763 302 1501ft 119kts
15-Sep-19 09:02 45.557377 -122.499614 302 1113ft 99kts
15-Sep-19 09:03 45.566217 -122.522417 299 763ft 95kts
15-Sep-19 09:04 45.574402 -122.543384 299 476ft 91kts
15-Sep-19 09:05 45.582849 -122.564960 297 131ft 97kts
15-Sep-19 09:06 45.589126 -122.581242 268 20ft 28kts
15-Sep-19 09:08 45.587351 -122.583369 211 20ft 0kts

Navigation Log

Ident Type
Flight plan parsing failed, navigation log unavailable